Time;durP1;ratioP1;P1;durP2;ratioP2;P2;SDS_P1;SDS_P2;PMS_P1;PMS_P2;Temp;Humidity;BMP_temperature;BMP_pressure;BME280_temperature;BME280_humidity;BME280_pressure;Samples;Min_cycle;Max_cycle;Signal;HPM_P1;HPM_P2
2021/07/31 00:11:12;;;;;;;;;;;;;;;;;;;;;
2021/07/31 00:14:08;;;;;;;5.07;4.10;;;;;;;23.70;56.21;98818.13;4964040;28;20177;-90
2021/07/31 00:17:41;;;;;;;4.03;3.70;;;;;;;23.59;56.70;98813.34;4930501;28;20292;-92
2021/07/31 00:20:39;;;;;;;4.18;3.80;;;;;;;23.54;56.02;98822.50;4933450;28;20574;-91
2021/07/31 00:24:05;;;;;;;4.57;3.95;;;;;;;23.48;56.53;98818.34;4940120;28;20193;-91
2021/07/31 00:27:19;;;;;;;4.75;3.70;;;;;;;23.36;56.84;98823.63;4962905;28;20226;-91
2021/07/31 00:31:01;;;;;;;;;;;;;;;;;;;;;
2021/07/31 00:34:12;;;;;;;7.07;4.10;;;;;;;23.23;57.09;98795.34;4939839;28;20192;-91
2021/07/31 00:36:45;;;;;;;4.68;4.07;;;;;;;23.10;57.36;98785.38;4950962;28;20546;-91
2021/07/31 00:39:38;;;;;;;4.05;3.75;;;;;;;23.10;57.49;98781.84;4955854;28;20319;-92
2021/07/31 00:42:19;;;;;;;4.25;3.90;;;;;;;23.11;57.03;98773.31;4929780;28;20311;-91
2021/07/31 00:45:14;;;;;;;4.50;4.10;;;;;;;22.97;57.54;98761.75;4925557;28;20302;-90
2021/07/31 00:48:19;;;;;;;4.00;3.60;;;;;;;22.87;57.69;98745.69;4920751;29;20698;-91
2021/07/31 00:50:55;;;;;;;4.90;4.05;;;;;;;22.77;58.13;98737.81;4943830;28;20625;-91
2021/07/31 00:53:33;;;;;;;4.65;4.25;;;;;;;22.74;57.97;98730.25;4946940;28;20220;-90
2021/07/31 00:56:02;;;;;;;3.78;3.47;;;;;;;22.72;58.26;98732.53;4946465;28;20261;-91
2021/07/31 00:58:38;;;;;;;4.45;4.05;;;;;;;22.58;58.97;98726.38;4919540;28;20232;-92
2021/07/31 01:01:17;;;;;;;4.20;3.90;;;;;;;22.56;58.82;98732.16;4943622;28;20692;-91
2021/07/31 01:03:52;;;;;;;6.45;3.90;;;;;;;22.51;58.92;98745.16;4947896;28;20224;-91
2021/07/31 01:06:33;;;;;;;4.40;4.00;;;;;;;22.42;59.09;98727.97;4948355;28;20239;-91
2021/07/31 01:58:11;;;;;;;6.03;4.13;;;;;;;21.10;65.88;98761.44;4771521;30;20194;-92
2021/07/31 02:05:14;;;;;;;4.20;3.90;;;;;;;20.82;67.00;98749.03;4802438;29;20273;-91
2021/07/31 02:16:15;;;;;;;;;;;;;;;;;;;;;
2021/07/31 02:19:40;;;;;;;7.07;4.10;;;;;;;20.44;69.00;98748.53;4921037;29;20610;-91
2021/07/31 02:23:57;;;;;;;4.83;4.33;;;;;;;20.37;69.51;98742.72;4951139;28;20227;-92
2021/07/31 02:28:04;;;;;;;;;;;;;;;;;;;;;
2021/07/31 02:31:48;;;;;;;5.10;4.70;;;;;;;20.13;70.77;98745.63;4929459;29;20208;-91
2021/07/31 02:35:11;;;;;;;4.60;4.30;;;;;;;20.02;71.21;98736.06;4929423;29;20205;-92
2021/07/31 02:38:59;;;;;;;;;;;;;;;;;;;;;
2021/07/31 02:42:31;;;;;;;;;;;;;;;;;;;;;
2021/07/31 02:50:47;;;;;;;5.03;4.63;;;;;;;19.70;72.36;98732.31;4912431;28;20222;-91
2021/07/31 02:53:59;;;;;;;4.43;4.10;;;;;;;19.69;72.41;98733.44;4927222;28;20249;-91
2021/07/31 02:56:33;;;;;;;7.63;4.80;;;;;;;19.58;72.95;98736.66;4930077;28;20235;-92
2021/07/31 02:59:18;;;;;;;4.63;4.30;;;;;;;19.55;72.80;98734.53;4944465;28;20322;-91
2021/07/31 03:01:56;;;;;;;4.70;4.10;;;;;;;19.48;73.61;98734.91;4928914;28;20714;-92
2021/07/31 03:04:32;;;;;;;4.40;4.00;;;;;;;19.44;73.71;98728.47;4904148;28;20242;-92
2021/07/31 03:07:22;;;;;;;5.97;4.13;;;;;;;19.39;74.14;98738.59;4931404;28;20233;-93
2021/07/31 03:09:58;;;;;;;4.97;4.57;;;;;;;19.35;74.17;98747.34;4916378;29;20252;-93
2021/07/31 03:12:39;;;;;;;4.87;4.47;;;;;;;19.34;73.93;98753.88;4942236;28;20312;-92
2021/07/31 03:15:14;;;;;;;5.23;4.73;;;;;;;19.27;74.38;98752.66;4953059;28;20222;-92
2021/07/31 03:17:44;;;;;;;4.93;4.47;;;;;;;19.30;74.62;98761.00;4933166;28;20325;-93
2021/07/31 04:00:10;;;;;;;;;;;;;;;;;;;;;
2021/07/31 04:22:41;;;;;;;;;;;;;;;;;;;;;
2021/07/31 04:39:14;;;;;;;4.83;4.43;;;;;;;21.26;70.21;98791.88;4724320;30;20264;-94
2021/07/31 04:46:48;;;;;;;216.17;125.77;;;;;;;21.51;69.31;98781.16;4813742;29;20241;-92
2021/07/31 04:50:38;;;;;;;11.93;9.93;;;;;;;21.82;68.59;98783.09;4821402;29;20244;-92
2021/07/31 04:54:07;;;;;;;4.97;4.47;;;;;;;22.12;67.45;98776.81;4849736;29;20230;-92
2021/07/31 05:04:47;;;;;;;4.40;4.05;;;;;;;23.26;62.07;98778.31;4765597;30;20593;-92
2021/07/31 05:46:47;;;;;;;;;;;;;;;;;;;;;
2021/07/31 05:49:44;;;;;;;3.65;3.35;;;;;;;25.27;55.54;98804.13;4847193;29;20234;-92
2021/07/31 05:56:51;;;;;;;3.58;2.78;;;;;;;25.37;48.50;98800.19;4870234;29;20249;-91
2021/07/31 06:00:56;;;;;;;2.90;2.70;;;;;;;25.77;50.35;98798.50;4893936;29;20306;-92
2021/07/31 06:12:35;;;;;;;2.75;2.55;;;;;;;26.06;50.49;98818.69;4940846;29;20224;-93
2021/07/31 06:17:06;;;;;;;3.25;2.92;;;;;;;26.07;48.39;98823.03;4937826;29;20629;-91
2021/07/31 06:20:38;;;;;;;2.95;2.75;;;;;;;26.05;48.53;98815.13;4844201;29;20235;-93
2021/07/31 06:24:19;;;;;;;2.65;2.45;;;;;;;26.61;48.84;98829.94;4847630;29;20707;-92
2021/07/31 06:27:54;;;;;;;2.75;2.55;;;;;;;26.48;47.48;98830.31;4813281;29;20743;-90
2021/07/31 06:30:37;;;;;;;2.40;2.20;;;;;;;26.38;47.99;98828.00;4831456;29;20243;-89
2021/07/31 06:33:17;;;;;;;2.90;2.70;;;;;;;27.03;47.05;98818.69;4859381;29;20265;-89
2021/07/31 06:35:59;;;;;;;2.80;2.60;;;;;;;27.13;46.40;98813.50;4864159;29;20245;-89
2021/07/31 06:39:28;;;;;;;2.67;2.47;;;;;;;27.63;47.08;98814.94;4831714;29;20239;-89
2021/07/31 06:46:26;;;;;;;2.60;2.40;;;;;;;28.86;42.71;98816.50;4806957;29;20225;-86
2021/07/31 06:49:53;;;;;;;2.50;2.30;;;;;;;28.97;42.69;98825.81;4824976;29;20323;-85
2021/07/31 06:53:20;;;;;;;2.50;2.30;;;;;;;28.24;44.36;98817.34;4799196;29;20256;-86
2021/07/31 06:56:05;;;;;;;2.70;2.42;;;;;;;28.27;44.50;98822.97;4834401;29;20233;-86
2021/07/31 06:58:43;;;;;;;2.50;2.30;;;;;;;28.21;44.12;98816.13;4921261;29;20229;-86
2021/07/31 07:02:02;;;;;;;2.40;2.20;;;;;;;28.50;43.50;98827.84;4906213;29;20320;-86
2021/07/31 07:05:04;;;;;;;2.70;2.50;;;;;;;28.60;42.54;98828.09;4874285;29;20222;-86
2021/07/31 07:10:43;;;;;;;2.72;2.53;;;;;;;27.63;45.06;98827.91;4915730;29;20226;-86
2021/07/31 07:18:37;;;;;;;;;;;;;;;;;;;;;
2021/07/31 07:49:07;;;;;;;;;;;;;;;;;;;;;
2021/07/31 08:02:03;;;;;;;;;;;;;;;;;;;;;
2021/07/31 10:29:02;;;;;;;4.25;3.92;;;;;;;30.52;38.47;98818.94;4843419;29;20208;-86
2021/07/31 11:24:21;;;;;;;4.57;4.28;;;;;;;32.33;33.49;98795.13;4951795;28;20239;-86
2021/07/31 11:27:20;;;;;;;5.00;4.50;;;;;;;32.66;32.71;98801.72;4891189;29;20236;-87
2021/07/31 11:30:27;;;;;;;4.78;4.38;;;;;;;32.15;32.95;98796.91;4927695;29;20233;-86
2021/07/31 11:34:09;;;;;;;4.30;4.00;;;;;;;32.46;32.80;98790.06;4939217;28;20239;-87
2021/07/31 11:37:19;;;;;;;4.30;4.00;;;;;;;31.91;33.45;98797.47;4923498;29;20233;-86
2021/07/31 11:40:07;;;;;;;4.20;3.90;;;;;;;31.71;33.53;98779.47;4911116;29;20613;-86
2021/07/31 11:43:04;;;;;;;3.92;3.63;;;;;;;31.89;33.68;98774.88;4879061;29;20227;-87
2021/07/31 11:46:03;;;;;;;3.60;3.30;;;;;;;32.05;33.72;98777.41;4849618;29;20200;-88
2021/07/31 11:49:32;;;;;;;4.53;4.13;;;;;;;31.57;34.64;98782.09;4880443;29;20207;-86
2021/07/31 11:52:55;;;;;;;3.60;3.30;;;;;;;31.44;34.08;98779.56;4867257;29;20534;-87
2021/07/31 11:56:36;;;;;;;2.78;2.58;;;;;;;31.50;33.27;98788.28;4871549;29;20285;-86
2021/07/31 12:00:01;;;;;;;2.55;2.38;;;;;;;31.24;32.77;98780.88;4877536;29;20298;-86
2021/07/31 12:02:34;;;;;;;4.05;3.10;;;;;;;31.63;32.42;98778.59;4838649;29;20300;-86
2021/07/31 12:05:11;;;;;;;3.60;3.30;;;;;;;31.74;33.10;98785.03;4835317;29;20561;-87
2021/07/31 12:08:13;;;;;;;3.85;3.33;;;;;;;31.72;33.24;98781.06;4848386;29;20231;-86
2021/07/31 12:11:03;;;;;;;3.20;3.00;;;;;;;32.02;32.63;98772.63;4860995;29;20244;-86
2021/07/31 12:14:02;;;;;;;3.20;3.00;;;;;;;32.23;31.83;98775.63;4853491;29;20304;-87
2021/07/31 12:16:45;;;;;;;2.70;2.40;;;;;;;32.39;31.57;98775.31;4832690;29;20272;-87
2021/07/31 12:22:59;;;;;;;2.50;2.30;;;;;;;31.31;32.08;98767.13;4921507;28;20245;-86
2021/07/31 12:25:39;;;;;;;2.88;2.45;;;;;;;31.60;31.84;98778.53;4911021;29;20256;-86
2021/07/31 12:28:54;;;;;;;2.50;2.40;;;;;;;32.07;31.62;98780.59;4930127;29;20224;-87
2021/07/31 12:34:57;;;;;;;2.67;2.50;;;;;;;32.94;30.53;98768.59;4931018;29;20315;-87
2021/07/31 12:38:00;;;;;;;2.85;2.65;;;;;;;32.97;30.29;98781.69;4929190;29;20308;-87
2021/07/31 12:40:41;;;;;;;2.83;2.63;;;;;;;32.96;30.16;98766.22;4942526;29;20225;-88
2021/07/31 12:43:27;;;;;;;2.53;2.33;;;;;;;32.49;30.67;98767.09;4923789;29;20229;-87
2021/07/31 12:46:04;;;;;;;2.88;2.67;;;;;;;32.40;31.28;98765.84;4911588;29;20236;-87
2021/07/31 12:48:48;;;;;;;2.90;2.70;;;;;;;32.60;31.49;98767.16;4933718;29;20232;-86
2021/07/31 12:51:30;;;;;;;3.38;2.60;;;;;;;32.71;31.05;98766.06;4941910;29;20243;-85
2021/07/31 12:54:08;;;;;;;2.75;2.55;;;;;;;32.38;31.75;98763.47;4936263;28;20253;-86
2021/07/31 12:56:45;;;;;;;3.00;2.80;;;;;;;32.58;31.66;98763.97;4933224;29;20232;-86
2021/07/31 12:59:37;;;;;;;2.78;2.58;;;;;;;32.55;31.75;98761.97;4931162;29;20237;-86
2021/07/31 13:02:41;;;;;;;2.78;2.58;;;;;;;32.42;31.25;98764.28;4911403;28;20240;-85
2021/07/31 13:05:14;;;;;;;3.00;2.80;;;;;;;32.59;31.72;98766.38;4924907;29;20748;-86
2021/07/31 13:08:27;;;;;;;2.60;2.40;;;;;;;32.99;32.13;98776.53;4917921;29;20232;-87
2021/07/31 13:11:48;;;;;;;2.78;2.58;;;;;;;33.07;31.35;98771.81;4880389;29;20241;-87
2021/07/31 13:14:46;;;;;;;2.97;2.78;;;;;;;33.32;31.26;98772.72;4879489;29;20226;-88
2021/07/31 13:17:21;;;;;;;3.17;2.75;;;;;;;33.52;31.15;98775.97;4893874;29;20230;-88
2021/07/31 13:20:13;;;;;;;2.95;2.75;;;;;;;33.80;29.77;98773.28;4890910;29;20241;-87
2021/07/31 13:23:13;;;;;;;2.85;2.65;;;;;;;33.78;29.98;98763.75;4883279;29;20230;-87
2021/07/31 13:26:21;;;;;;;2.88;2.67;;;;;;;33.81;30.28;98758.19;4887998;29;20317;-87
2021/07/31 13:29:08;;;;;;;2.70;2.50;;;;;;;33.32;30.31;98764.41;4914517;29;20261;-86
2021/07/31 13:32:11;;;;;;;2.75;2.55;;;;;;;33.10;30.76;98769.03;4910930;29;20238;-87
2021/07/31 13:34:56;;;;;;;3.25;2.63;;;;;;;33.12;30.08;98761.13;4905097;29;20202;-87
2021/07/31 13:37:45;;;;;;;2.53;2.42;;;;;;;33.43;29.77;98758.88;4918618;29;20230;-86
2021/07/31 13:44:05;;;;;;;2.70;2.50;;;;;;;34.27;29.65;98774.91;4912665;29;20233;-86
2021/07/31 13:46:55;;;;;;;3.45;2.80;;;;;;;35.28;27.97;98765.97;4884065;29;20230;-86
2021/07/31 13:49:41;;;;;;;3.40;2.78;;;;;;;36.69;26.47;98769.75;4938680;28;20259;-86
2021/07/31 13:52:29;;;;;;;2.60;2.40;;;;;;;37.90;24.40;98763.44;4960984;28;20236;-87
2021/07/31 13:55:36;;;;;;;2.75;2.50;;;;;;;36.61;24.61;98757.88;4947849;28;20224;-87
2021/07/31 14:02:00;;;;;;;2.72;2.53;;;;;;;36.94;25.40;98761.13;4961242;28;20327;-88
2021/07/31 14:05:12;;;;;;;3.28;3.08;;;;;;;37.84;24.50;98762.34;4979050;28;20962;-87
2021/07/31 14:08:46;;;;;;;2.95;2.75;;;;;;;38.87;23.39;98753.00;4951670;28;20648;-87
2021/07/31 14:12:25;;;;;;;3.13;2.92;;;;;;;40.42;21.28;98759.91;4977432;28;20244;-87
2021/07/31 14:15:44;;;;;;;3.35;2.78;;;;;;;42.77;18.82;98756.38;4891979;29;20286;-86
2021/07/31 14:19:52;;;;;;;3.20;3.00;;;;;;;43.93;17.14;98753.94;4933605;28;20232;-89
2021/07/31 14:29:38;;;;;;;3.45;3.25;;;;;;;39.58;22.56;98729.88;4966590;28;20303;-88
2021/07/31 14:37:14;;;;;;;3.50;3.30;;;;;;;37.86;24.58;98726.38;4976770;28;20713;-87
2021/07/31 14:39:41;;;;;;;3.92;3.15;;;;;;;37.05;26.59;98726.25;4974602;28;20260;-85
2021/07/31 14:42:07;;;;;;;3.38;3.17;;;;;;;36.54;25.73;98732.81;4958338;28;20225;-86
2021/07/31 14:44:35;;;;;;;3.03;2.83;;;;;;;36.02;26.60;98734.84;4955728;28;20232;-85
2021/07/31 14:47:02;;;;;;;3.38;3.17;;;;;;;34.96;28.11;98734.66;4987960;28;20224;-85
2021/07/31 14:49:29;;;;;;;3.47;3.10;;;;;;;34.87;27.98;98730.31;4939848;29;20243;-86
2021/07/31 14:51:57;;;;;;;3.75;3.45;;;;;;;34.63;28.65;98703.34;4971542;28;20228;-86
2021/07/31 14:54:24;;;;;;;3.40;3.20;;;;;;;34.78;28.30;98709.69;4958436;28;20263;-86
2021/07/31 14:56:51;;;;;;;3.60;3.30;;;;;;;34.90;28.26;98698.91;4975116;28;20228;-86
2021/07/31 14:59:18;;;;;;;3.17;2.97;;;;;;;34.86;29.01;98692.56;4974307;28;20239;-85
2021/07/31 15:01:44;;;;;;;3.20;3.00;;;;;;;34.50;29.09;98688.28;4955632;28;20241;-86
2021/07/31 15:04:11;;;;;;;3.70;3.40;;;;;;;34.15;28.96;98691.13;4940721;28;20232;-86
2021/07/31 15:06:38;;;;;;;3.40;3.20;;;;;;;34.38;29.01;98685.94;4971837;28;20231;-85
2021/07/31 15:09:05;;;;;;;3.08;2.88;;;;;;;34.72;28.87;98691.81;4988949;28;20319;-85
2021/07/31 15:11:32;;;;;;;3.28;2.97;;;;;;;34.87;29.94;98688.59;4940318;29;20304;-87
2021/07/31 15:13:58;;;;;;;3.60;3.30;;;;;;;34.76;29.31;98673.91;4955892;28;20221;-84
2021/07/31 15:16:25;;;;;;;3.53;3.30;;;;;;;34.54;29.93;98679.94;4967062;28;20246;-86
2021/07/31 15:18:52;;;;;;;3.60;3.30;;;;;;;34.20;30.69;98685.19;4971724;28;20228;-86
2021/07/31 15:21:19;;;;;;;3.50;3.30;;;;;;;33.88;29.34;98674.06;4942777;28;20231;-85
2021/07/31 15:23:46;;;;;;;3.38;3.17;;;;;;;33.96;30.95;98679.22;4955753;28;20262;-85
2021/07/31 15:26:13;;;;;;;3.63;3.42;;;;;;;33.48;30.93;98669.66;4941502;28;20291;-86
2021/07/31 15:28:39;;;;;;;3.15;2.95;;;;;;;33.12;31.21;98674.31;4971871;28;20228;-87
2021/07/31 15:31:07;;;;;;;3.30;3.10;;;;;;;33.18;31.19;98679.09;4988780;28;20225;-85
2021/07/31 15:33:34;;;;;;;3.20;3.00;;;;;;;33.10;32.69;98683.03;4955885;28;20255;-85
2021/07/31 15:36:01;;;;;;;3.45;3.15;;;;;;;33.23;32.61;98688.22;4955956;28;20710;-83
2021/07/31 15:38:30;;;;;;;3.30;3.10;;;;;;;33.29;31.45;98681.91;4955592;28;20525;-86
2021/07/31 15:40:57;;;;;;;3.72;3.30;;;;;;;33.62;31.32;98695.47;4955707;29;20229;-85
2021/07/31 15:43:25;;;;;;;3.00;2.80;;;;;;;33.74;32.77;98693.50;4997910;28;20311;-86
2021/07/31 15:45:56;;;;;;;3.60;3.40;;;;;;;34.06;30.87;98685.97;4975938;28;20262;-86
2021/07/31 15:48:23;;;;;;;3.63;3.30;;;;;;;34.19;30.56;98669.69;4974105;28;20240;-85
2021/07/31 15:50:50;;;;;;;3.67;3.45;;;;;;;34.50;31.14;98679.94;4942747;29;20224;-87
2021/07/31 15:53:17;;;;;;;3.40;3.20;;;;;;;34.54;30.17;98683.50;4954114;28;20502;-86
2021/07/31 15:55:44;;;;;;;3.40;3.20;;;;;;;34.63;29.72;98674.72;4978938;28;20224;-86
2021/07/31 15:58:11;;;;;;;3.40;3.20;;;;;;;34.73;29.05;98682.28;4963663;28;20465;-87
2021/07/31 16:00:37;;;;;;;3.45;3.25;;;;;;;34.80;28.85;98674.72;4998773;28;20315;-86
2021/07/31 16:03:07;;;;;;;3.22;3.03;;;;;;;34.71;28.96;98660.44;4965702;28;20233;-85
2021/07/31 16:05:36;;;;;;;3.60;3.40;;;;;;;34.64;29.57;98663.22;4998506;28;20280;-86
2021/07/31 16:08:04;;;;;;;3.30;3.00;;;;;;;34.62;29.34;98665.63;5013777;28;20285;-85
2021/07/31 16:10:31;;;;;;;3.90;3.60;;;;;;;34.38;30.13;98666.50;5014303;28;20306;-86
2021/07/31 16:12:58;;;;;;;4.15;3.80;;;;;;;34.43;29.89;98669.66;4981901;28;20306;-86
2021/07/31 16:15:24;;;;;;;4.00;3.70;;;;;;;34.31;30.74;98653.38;4965517;28;20642;-86
2021/07/31 16:17:51;;;;;;;3.30;3.00;;;;;;;34.20;30.92;98669.31;4981848;28;20254;-85
2021/07/31 16:20:26;;;;;;;3.15;2.95;;;;;;;34.29;30.13;98668.88;4966384;28;20277;-86
2021/07/31 16:22:53;;;;;;;3.60;3.30;;;;;;;34.13;30.82;98665.69;4982042;28;20627;-85
2021/07/31 16:25:20;;;;;;;3.25;3.05;;;;;;;33.91;30.57;98662.16;4965367;28;20235;-86
2021/07/31 16:27:46;;;;;;;3.45;3.15;;;;;;;33.93;31.13;98659.75;4965586;28;20227;-85
2021/07/31 16:30:13;;;;;;;3.35;3.10;;;;;;;33.77;31.29;98651.06;4981321;28;20251;-86
2021/07/31 16:32:40;;;;;;;3.55;3.28;;;;;;;33.31;31.43;98640.69;4997570;28;20231;-87
2021/07/31 16:35:07;;;;;;;3.40;3.15;;;;;;;32.83;31.55;98655.97;4981178;28;20229;-85
2021/07/31 16:37:34;;;;;;;3.30;3.10;;;;;;;32.57;33.11;98652.28;4965424;28;20282;-86
2021/07/31 16:40:01;;;;;;;4.00;3.70;;;;;;;32.49;33.22;98650.66;4996571;28;20239;-86
2021/07/31 16:42:28;;;;;;;3.60;3.30;;;;;;;32.36;33.98;98645.84;4997455;28;20251;-86
2021/07/31 16:44:55;;;;;;;3.80;3.50;;;;;;;32.37;34.25;98641.88;4997115;28;20274;-87
2021/07/31 16:47:22;;;;;;;3.50;3.30;;;;;;;32.12;34.70;98650.84;4997138;28;20239;-85
2021/07/31 16:49:49;;;;;;;3.65;3.40;;;;;;;32.05;34.63;98639.69;4981288;28;20275;-87
2021/07/31 16:52:16;;;;;;;3.67;3.42;;;;;;;32.01;34.99;98643.63;4996361;28;20235;-86
2021/07/31 16:54:47;;;;;;;3.42;2.95;;;;;;;31.94;35.79;98649.09;4996741;28;20235;-86
2021/07/31 16:57:14;;;;;;;3.67;3.38;;;;;;;31.81;35.90;98643.09;4981091;28;20237;-86
2021/07/31 16:59:41;;;;;;;3.50;3.30;;;;;;;31.90;34.90;98638.00;4965197;28;20302;-86
2021/07/31 17:02:08;;;;;;;3.30;3.10;;;;;;;31.89;35.09;98650.25;4996050;28;20322;-83
2021/07/31 17:04:36;;;;;;;3.47;3.17;;;;;;;31.88;35.25;98645.88;4996553;28;20235;-84
2021/07/31 17:07:04;;;;;;;3.67;3.38;;;;;;;31.94;34.67;98646.31;4997174;28;20526;-86
2021/07/31 17:09:31;;;;;;;3.80;3.50;;;;;;;31.87;34.73;98636.78;4980699;28;20239;-85
2021/07/31 17:11:58;;;;;;;3.83;3.53;;;;;;;31.81;34.48;98641.09;4996473;28;20287;-87
2021/07/31 17:14:24;;;;;;;3.40;3.10;;;;;;;31.72;35.59;98645.38;5028620;28;20234;-85
2021/07/31 17:16:51;;;;;;;3.10;2.90;;;;;;;31.63;35.25;98639.38;4980675;28;20223;-85
2021/07/31 17:19:18;;;;;;;3.00;2.80;;;;;;;31.53;35.07;98645.59;4996753;28;20227;-86
2021/07/31 17:21:45;;;;;;;3.10;2.90;;;;;;;31.27;36.31;98632.69;5012757;28;20254;-84
2021/07/31 17:24:12;;;;;;;3.67;3.28;;;;;;;30.98;37.31;98626.81;4996352;28;20303;-85
2021/07/31 17:26:39;;;;;;;3.35;3.10;;;;;;;30.88;36.60;98637.78;4997497;28;20224;-85
2021/07/31 17:29:06;;;;;;;3.17;2.88;;;;;;;30.74;36.92;98643.94;5012715;28;20231;-86
2021/07/31 17:31:35;;;;;;;3.55;3.35;;;;;;;30.55;37.41;98644.91;4996121;28;20302;-87
2021/07/31 17:34:02;;;;;;;3.33;3.08;;;;;;;30.33;37.86;98648.50;4963707;28;20319;-84
2021/07/31 17:36:29;;;;;;;3.47;3.17;;;;;;;30.03;39.13;98645.72;4980587;28;20522;-86
2021/07/31 17:38:55;;;;;;;3.80;3.50;;;;;;;29.84;40.28;98653.25;4996291;28;20290;-85
2021/07/31 17:41:22;;;;;;;3.50;3.20;;;;;;;29.63;40.41;98654.50;4996129;28;20231;-85
2021/07/31 17:43:49;;;;;;;3.70;3.25;;;;;;;29.45;40.77;98644.31;4996122;28;20258;-87
2021/07/31 17:46:16;;;;;;;3.55;3.25;;;;;;;29.25;42.24;98649.09;4995390;28;20314;-85
2021/07/31 17:48:42;;;;;;;3.65;3.35;;;;;;;29.05;43.34;98642.00;4995953;28;20227;-87
2021/07/31 17:51:09;;;;;;;3.58;3.28;;;;;;;28.77;43.32;98637.53;4995817;28;20230;-85
2021/07/31 17:53:36;;;;;;;3.80;3.30;;;;;;;28.55;44.21;98642.97;4963853;28;20228;-85
2021/07/31 17:56:03;;;;;;;3.90;3.28;;;;;;;28.29;45.18;98633.34;4996917;28;20271;-87
2021/07/31 17:58:30;;;;;;;4.95;3.35;;;;;;;28.23;45.41;98640.28;4979838;28;20231;-86
2021/07/31 18:00:57;;;;;;;5.18;3.20;;;;;;;28.17;45.17;98640.94;4979551;28;20889;-85
2021/07/31 18:03:24;;;;;;;3.72;3.45;;;;;;;28.07;46.23;98650.53;4995411;28;20294;-83
2021/07/31 18:05:51;;;;;;;3.75;3.40;;;;;;;27.91;47.24;98656.06;4996221;28;20288;-85
2021/07/31 18:08:17;;;;;;;3.85;3.53;;;;;;;27.76;48.26;98651.38;4993424;28;20635;-85
2021/07/31 18:10:44;;;;;;;4.13;3.50;;;;;;;27.64;48.89;98662.47;4995712;28;20231;-86
2021/07/31 18:13:11;;;;;;;4.05;3.72;;;;;;;27.51;49.71;98671.97;4994483;28;20227;-87
2021/07/31 18:15:40;;;;;;;3.53;3.22;;;;;;;27.30;50.00;98663.91;4979824;28;20510;-85
2021/07/31 18:18:07;;;;;;;4.22;3.75;;;;;;;27.19;50.88;98664.81;4994744;28;20543;-87
2021/07/31 18:20:34;;;;;;;3.65;3.30;;;;;;;26.94;51.68;98666.88;4995702;28;20243;-88
2021/07/31 18:23:01;;;;;;;3.42;3.22;;;;;;;26.82;52.43;98689.69;5028560;28;20251;-88
2021/07/31 18:25:28;;;;;;;3.75;3.30;;;;;;;26.65;52.32;98692.69;4979634;28;20307;-86
2021/07/31 18:27:55;;;;;;;3.72;3.38;;;;;;;26.55;52.80;98695.94;4995018;28;20231;-85
2021/07/31 18:30:22;;;;;;;4.03;3.70;;;;;;;26.35;53.51;98681.22;4976997;28;20223;-85
2021/07/31 18:32:49;;;;;;;3.70;3.40;;;;;;;26.20;53.65;98687.38;4944162;28;20303;-86
2021/07/31 18:35:16;;;;;;;3.88;3.50;;;;;;;26.14;54.27;98697.78;4940102;28;20225;-86
2021/07/31 18:37:43;;;;;;;4.03;3.72;;;;;;;25.94;54.63;98681.47;4956201;28;20276;-86
2021/07/31 18:40:10;;;;;;;4.97;3.75;;;;;;;25.80;55.56;98684.56;4974795;28;20228;-86
2021/07/31 18:42:38;;;;;;;4.10;3.70;;;;;;;25.71;55.97;98697.56;4943806;28;20232;-87
2021/07/31 18:45:06;;;;;;;5.25;3.53;;;;;;;25.66;56.12;98712.28;4974919;28;20279;-86
2021/07/31 18:47:33;;;;;;;4.60;4.20;;;;;;;25.59;55.79;98714.00;4991822;28;20259;-86
2021/07/31 18:50:00;;;;;;;3.80;3.50;;;;;;;25.50;56.29;98716.00;4975165;28;20228;-86
2021/07/31 18:52:27;;;;;;;5.70;3.67;;;;;;;25.31;56.58;98705.56;4943358;28;20224;-87
2021/07/31 18:54:54;;;;;;;5.60;4.03;;;;;;;25.28;57.01;98707.06;4959437;28;20240;-86
2021/07/31 18:57:21;;;;;;;4.88;4.03;;;;;;;25.23;57.40;98717.44;4943444;28;20603;-87
2021/07/31 18:59:47;;;;;;;4.10;3.67;;;;;;;25.12;57.47;98711.56;4943252;28;20228;-85
2021/07/31 19:02:14;;;;;;;4.07;3.78;;;;;;;25.08;57.79;98710.63;4942975;28;20239;-87
2021/07/31 19:04:41;;;;;;;4.63;3.83;;;;;;;24.87;58.14;98696.94;4959242;28;20228;-86
2021/07/31 19:07:09;;;;;;;3.80;3.45;;;;;;;24.79;56.88;98688.78;4943329;28;20522;-86
2021/07/31 19:09:36;;;;;;;5.57;3.95;;;;;;;24.80;56.83;98699.41;4959106;28;20219;-86
2021/07/31 19:12:05;;;;;;;5.22;3.80;;;;;;;24.77;56.64;98691.88;4942964;28;20239;-87
2021/07/31 19:14:32;;;;;;;4.13;3.72;;;;;;;24.73;57.26;98695.63;4975219;28;20274;-87
2021/07/31 19:17:00;;;;;;;4.40;4.10;;;;;;;24.69;57.36;98708.34;4975468;28;20222;-86
2021/07/31 19:19:26;;;;;;;4.28;3.38;;;;;;;24.69;57.14;98725.59;4975073;28;20226;-87
2021/07/31 19:21:53;;;;;;;3.90;3.60;;;;;;;24.68;56.42;98731.44;4959118;28;20258;-87
2021/07/31 19:24:21;;;;;;;4.80;4.35;;;;;;;24.58;56.32;98715.38;4942662;28;20234;-87
2021/07/31 19:26:48;;;;;;;4.50;3.80;;;;;;;24.64;56.42;98736.75;4990911;28;20228;-85
2021/07/31 19:29:18;;;;;;;4.15;3.85;;;;;;;24.68;56.31;98731.44;4990838;28;20228;-85
2021/07/31 19:31:45;;;;;;;4.03;3.72;;;;;;;24.69;56.72;98727.53;4939631;29;20220;-86
2021/07/31 19:34:12;;;;;;;3.97;3.63;;;;;;;24.61;57.87;98721.00;4970873;28;20242;-86
2021/07/31 19:36:39;;;;;;;4.38;4.07;;;;;;;24.53;58.45;98719.94;4987477;28;20224;-86
2021/07/31 19:39:06;;;;;;;4.28;3.88;;;;;;;24.52;58.79;98725.72;4941327;28;20643;-87
2021/07/31 19:41:33;;;;;;;4.03;3.70;;;;;;;24.40;58.69;98710.00;4939310;28;20314;-87
2021/07/31 19:44:01;;;;;;;4.35;3.95;;;;;;;24.48;58.42;98722.06;4971392;28;20251;-87
2021/07/31 19:46:28;;;;;;;4.25;3.95;;;;;;;24.39;58.48;98722.13;4955328;28;20230;-88
2021/07/31 19:48:55;;;;;;;4.68;4.28;;;;;;;24.38;58.91;98727.91;4971764;28;20228;-85
2021/07/31 19:51:22;;;;;;;4.60;4.20;;;;;;;24.36;58.60;98720.03;4939139;29;20255;-85
2021/07/31 19:53:48;;;;;;;4.72;4.32;;;;;;;24.26;58.54;98714.16;4955434;28;20274;-87
2021/07/31 19:56:18;;;;;;;5.28;4.40;;;;;;;24.07;57.93;98703.59;4955984;28;20626;-85
2021/07/31 19:58:45;;;;;;;4.80;4.20;;;;;;;24.10;58.39;98711.16;4971292;28;20234;-87
2021/07/31 20:01:13;;;;;;;4.18;3.83;;;;;;;24.03;58.93;98710.84;4971133;28;20259;-86
2021/07/31 20:03:40;;;;;;;4.32;3.85;;;;;;;23.99;59.45;98715.38;4939745;28;20648;-87
2021/07/31 20:06:08;;;;;;;4.20;3.80;;;;;;;23.95;59.80;98726.19;4977175;28;20596;-88
2021/07/31 20:08:35;;;;;;;4.50;4.20;;;;;;;23.83;60.23;98711.59;4993875;28;20317;-86
2021/07/31 20:11:02;;;;;;;4.30;3.95;;;;;;;23.80;60.23;98704.03;4961881;28;20228;-86
2021/07/31 20:13:29;;;;;;;4.35;4.05;;;;;;;23.83;60.02;98706.94;4962045;28;20256;-87
2021/07/31 20:15:56;;;;;;;4.47;4.10;;;;;;;23.84;59.60;98715.94;4961679;28;20537;-86
2021/07/31 20:18:23;;;;;;;4.20;3.85;;;;;;;23.83;59.42;98725.28;4961386;28;20237;-86
2021/07/31 20:20:50;;;;;;;4.43;4.00;;;;;;;23.80;60.39;98743.13;4962081;28;20230;-87
2021/07/31 20:23:17;;;;;;;5.05;4.47;;;;;;;23.78;59.99;98728.19;4961908;28;20338;-87
2021/07/31 20:25:44;;;;;;;4.40;4.10;;;;;;;23.77;60.21;98724.66;4959790;28;20227;-87
2021/07/31 20:28:11;;;;;;;4.63;4.22;;;;;;;23.81;60.65;98714.66;4975524;28;20239;-85
2021/07/31 20:30:38;;;;;;;5.93;4.22;;;;;;;23.74;60.67;98700.72;4961918;28;20678;-89
2021/07/31 20:33:04;;;;;;;4.43;4.03;;;;;;;23.77;61.06;98702.78;4994517;28;20263;-88
2021/07/31 20:35:31;;;;;;;4.47;3.92;;;;;;;23.77;60.98;98707.44;4947031;28;20285;-89
2021/07/31 20:37:59;;;;;;;4.68;4.18;;;;;;;23.60;61.66;98700.91;4965498;28;20655;-87
2021/07/31 20:40:25;;;;;;;5.57;4.50;;;;;;;23.62;62.91;98711.50;4981128;28;20303;-88
2021/07/31 20:42:52;;;;;;;4.40;4.00;;;;;;;23.64;63.04;98706.53;4981289;28;20637;-87
2021/07/31 20:45:19;;;;;;;4.60;4.30;;;;;;;23.59;62.92;98685.63;4997576;28;20231;-87
2021/07/31 20:47:46;;;;;;;4.82;4.38;;;;;;;23.65;62.96;98692.53;4965264;28;20250;-87
2021/07/31 20:50:15;;;;;;;4.47;4.07;;;;;;;23.58;63.29;98675.03;4981067;28;20288;-88
2021/07/31 20:52:44;;;;;;;4.80;4.10;;;;;;;23.64;63.04;98671.78;4965805;28;20646;-87
2021/07/31 20:55:11;;;;;;;4.55;4.13;;;;;;;23.63;61.99;98674.84;4997680;28;20224;-87
2021/07/31 20:57:38;;;;;;;4.40;4.00;;;;;;;23.49;62.34;98674.25;4998475;28;20235;-88
2021/07/31 21:00:06;;;;;;;4.28;3.90;;;;;;;23.51;62.21;98688.41;4964606;28;20280;-87
2021/07/31 21:02:37;;;;;;;6.78;3.85;;;;;;;23.42;62.19;98673.94;4981837;28;20310;-87
2021/07/31 21:05:06;;;;;;;4.78;4.20;;;;;;;23.44;62.11;98674.41;4949578;28;20230;-87
2021/07/31 21:07:34;;;;;;;4.53;4.13;;;;;;;23.45;61.90;98676.84;4964981;28;20262;-88